Frost Town, Louisiana
Current Conditions -  °F | °C
As of 4:15 PM on Friday 31 Oct 2014 (Local Time) from KRSN Reporting Station
Broken Clouds Broken Clouds  
Wind Chill: 69°   Ceiling: 5000
Heat Index: 69°   Visibility: 10mi
Dew Point: 45°   Wind: 9mph
Humidity: 43%   Direction: 340°NNW
Pressure: 30.2"   Gusts: 17mph
Location:  32.6533°N, 92.3683°W
Report Text: KRSN 312115Z AUTO 34008G15KT 10SM BKN050 20/07 A3020 RMK AO2 T02030072
Loading
Personal Weather Stations






























Interactive Weather Map
Tropical Storm Tracking
New forecast layout! Learn more

10-Day Weather Forecast

Advertisements
Track Severe Weather on mobile